createdAt,value
2022-12-09T00:00:57.881Z,4.43
2022-12-09T00:03:25.258Z,2.63
2022-12-09T00:05:52.648Z,4.30
2022-12-09T00:08:19.901Z,4.37
2022-12-09T00:10:47.022Z,3.53
2022-12-09T00:13:14.129Z,3.83
2022-12-09T00:15:42.583Z,4.73
2022-12-09T00:18:10.236Z,4.57
2022-12-09T00:20:37.626Z,3.30
2022-12-09T00:23:06.105Z,4.13
2022-12-09T00:25:33.318Z,5.40
2022-12-09T00:28:00.623Z,3.90
2022-12-09T00:30:28.122Z,3.20
2022-12-09T00:32:55.271Z,4.33
2022-12-09T00:35:22.920Z,5.13
2022-12-09T00:37:50.449Z,3.73
2022-12-09T00:40:17.732Z,4.90
2022-12-09T00:42:44.902Z,4.27
2022-12-09T00:45:12.154Z,3.67
2022-12-09T00:47:39.435Z,3.73
2022-12-09T00:50:07.538Z,5.90
2022-12-09T00:52:35.021Z,4.13
2022-12-09T00:55:02.318Z,3.80
2022-12-09T00:57:29.616Z,5.30
2022-12-09T00:59:57.127Z,3.20
2022-12-09T01:02:24.606Z,4.80
2022-12-09T01:04:52.414Z,4.50
2022-12-09T01:07:19.839Z,3.10
2022-12-09T01:09:47.153Z,3.97
2022-12-09T01:12:14.250Z,4.27
2022-12-09T01:14:41.354Z,4.87
2022-12-09T01:17:08.664Z,4.40
2022-12-09T01:19:36.021Z,5.40
2022-12-09T01:22:03.472Z,4.53
2022-12-09T01:24:30.617Z,5.00
2022-12-09T01:26:57.877Z,4.10
2022-12-09T01:29:25.104Z,5.67
2022-12-09T01:31:52.319Z,4.87
2022-12-09T01:34:19.451Z,3.63
2022-12-09T01:36:48.427Z,3.80
2022-12-09T01:39:16.715Z,5.70
2022-12-09T01:41:44.158Z,5.27
2022-12-09T01:44:13.048Z,5.80
2022-12-09T01:46:40.398Z,3.97
2022-12-09T01:49:08.761Z,5.60
2022-12-09T01:51:36.195Z,4.50
2022-12-09T01:54:03.704Z,3.80
2022-12-09T01:56:32.929Z,4.07
2022-12-09T01:59:03.025Z,6.63
2022-12-09T02:01:30.178Z,4.50
2022-12-09T02:03:57.680Z,3.10
2022-12-09T02:06:25.193Z,3.93
2022-12-09T02:08:52.556Z,5.00
2022-12-09T02:11:30.669Z,4.63
2022-12-09T02:14:11.343Z,3.73
2022-12-09T02:16:42.532Z,4.10
2022-12-09T02:19:28.887Z,4.17
2022-12-09T02:22:00.258Z,4.03
2022-12-09T02:24:41.295Z,3.03
2022-12-09T02:27:08.441Z,4.37
2022-12-09T02:29:53.681Z,3.27
2022-12-09T02:32:37.914Z,4.00
2022-12-09T02:35:16.844Z,2.77
2022-12-09T02:37:52.153Z,2.93
2022-12-09T02:40:22.524Z,3.13
2022-12-09T02:42:50.237Z,2.47
2022-12-09T02:45:19.077Z,4.53
2022-12-09T02:47:49.063Z,4.27
2022-12-09T02:50:18.458Z,3.67
2022-12-09T02:52:45.772Z,2.60
2022-12-09T02:55:14.684Z,3.23
2022-12-09T02:57:42.405Z,4.33
2022-12-09T03:00:10.413Z,4.17
2022-12-09T03:02:43.943Z,3.07
2022-12-09T03:05:20.358Z,3.10
2022-12-09T03:07:57.571Z,3.83
2022-12-09T03:10:28.426Z,5.03
2022-12-09T03:13:01.052Z,3.17
2022-12-09T03:15:30.717Z,3.03
2022-12-09T03:17:59.111Z,3.47
2022-12-09T03:20:29.334Z,3.03
2022-12-09T03:23:00.099Z,2.87
2022-12-09T03:25:31.495Z,3.90
2022-12-09T03:28:03.514Z,4.10
2022-12-09T03:30:32.316Z,2.73
2022-12-09T03:32:59.596Z,5.47
2022-12-09T03:35:42.380Z,3.73
2022-12-09T03:38:11.434Z,2.93
2022-12-09T03:40:39.404Z,3.10
2022-12-09T03:43:11.782Z,3.63
2022-12-09T03:45:39.372Z,4.43
2022-12-09T03:48:06.937Z,3.20
2022-12-09T03:50:42.531Z,4.17
2022-12-09T03:53:15.460Z,4.43
2022-12-09T03:55:49.790Z,5.83
2022-12-09T03:58:17.973Z,3.53
2022-12-09T04:00:45.595Z,4.20
2022-12-09T04:03:14.243Z,3.67
2022-12-09T04:05:43.275Z,3.53
2022-12-09T04:08:10.907Z,3.73
2022-12-09T04:10:38.114Z,3.33
2022-12-09T04:13:05.297Z,3.17
2022-12-09T04:15:32.489Z,2.37
2022-12-09T04:18:00.444Z,2.53
2022-12-09T04:20:28.026Z,3.87
2022-12-09T04:22:56.633Z,3.27
2022-12-09T04:25:23.895Z,2.87
2022-12-09T04:27:51.080Z,3.80
2022-12-09T04:30:18.420Z,4.07
2022-12-09T04:32:46.016Z,3.33
2022-12-09T04:35:13.265Z,4.80
2022-12-09T04:37:40.409Z,2.40
2022-12-09T04:40:08.982Z,3.33
2022-12-09T04:42:36.673Z,3.57
2022-12-09T04:45:04.573Z,6.97
2022-12-09T04:47:33.513Z,3.93
2022-12-09T04:50:00.828Z,5.60
2022-12-09T04:52:28.274Z,5.43
2022-12-09T04:54:55.765Z,3.87
2022-12-09T04:57:22.963Z,3.93
2022-12-09T04:59:50.038Z,5.63
2022-12-09T05:02:17.163Z,4.07
2022-12-09T05:04:46.816Z,3.97
2022-12-09T05:07:14.714Z,3.90
2022-12-09T05:09:42.473Z,2.83
2022-12-09T05:12:09.893Z,4.83
2022-12-09T05:14:37.371Z,5.53
2022-12-09T05:17:04.720Z,5.67
2022-12-09T05:19:32.297Z,4.40
2022-12-09T05:21:59.865Z,3.70
2022-12-09T05:24:27.243Z,4.03
2022-12-09T05:26:54.820Z,5.27
2022-12-09T05:29:23.508Z,2.97
2022-12-09T05:31:51.776Z,4.93
2022-12-09T05:34:19.787Z,4.90
2022-12-09T05:36:47.509Z,3.37
2022-12-09T05:39:14.744Z,5.93
2022-12-09T05:41:43.432Z,3.20
2022-12-09T05:44:14.037Z,5.27
2022-12-09T05:46:41.259Z,3.93
2022-12-09T05:49:08.805Z,4.07
2022-12-09T05:51:36.233Z,6.40
2022-12-09T05:54:04.595Z,4.03
2022-12-09T05:56:32.402Z,5.40
2022-12-09T05:59:00.263Z,2.17
2022-12-09T06:01:27.858Z,5.33
2022-12-09T06:03:55.796Z,3.67
2022-12-09T06:06:26.645Z,2.50
2022-12-09T06:08:58.780Z,3.90
2022-12-09T06:11:27.115Z,3.23
2022-12-09T06:13:54.905Z,3.07
2022-12-09T06:16:23.420Z,3.23
2022-12-09T06:18:51.258Z,4.83
2022-12-09T06:21:19.505Z,3.33
2022-12-09T06:23:47.616Z,4.17
2022-12-09T06:26:26.861Z,3.77
2022-12-09T06:28:54.826Z,3.17
2022-12-09T06:31:22.436Z,4.77
2022-12-09T06:33:55.921Z,3.73
2022-12-09T06:36:24.934Z,4.87
2022-12-09T06:38:52.595Z,4.43
2022-12-09T06:41:19.948Z,4.10
2022-12-09T06:43:47.529Z,4.33
2022-12-09T06:46:19.672Z,2.93
2022-12-09T06:48:47.564Z,4.00
2022-12-09T06:51:15.802Z,3.40
2022-12-09T06:53:43.065Z,3.60
2022-12-09T06:56:12.717Z,2.73
2022-12-09T06:58:41.506Z,3.20
2022-12-09T07:01:14.237Z,2.90
2022-12-09T07:03:42.898Z,3.10
2022-12-09T07:06:29.175Z,4.10
2022-12-09T07:08:58.189Z,4.20
2022-12-09T07:11:25.707Z,2.10
2022-12-09T07:13:53.030Z,2.63
2022-12-09T07:16:21.066Z,2.70
2022-12-09T07:18:48.695Z,3.17
2022-12-09T07:21:20.228Z,5.40
2022-12-09T07:23:47.978Z,4.20
2022-12-09T07:26:15.653Z,2.93
2022-12-09T07:28:43.581Z,3.17
2022-12-09T07:31:18.031Z,4.67
2022-12-09T07:33:46.047Z,7.23
2022-12-09T07:36:17.594Z,2.60
2022-12-09T07:38:48.317Z,3.37
2022-12-09T07:41:18.579Z,2.77
2022-12-09T07:43:46.299Z,6.93
2022-12-09T07:46:14.378Z,6.10
2022-12-09T07:48:41.715Z,4.73
2022-12-09T07:51:09.143Z,4.43
2022-12-09T07:53:37.274Z,4.27
2022-12-09T07:56:05.479Z,3.73
2022-12-09T07:58:33.071Z,5.13
2022-12-09T08:01:11.558Z,5.07
2022-12-09T08:03:40.325Z,3.90
2022-12-09T08:06:07.773Z,4.67
2022-12-09T08:08:35.829Z,2.17
2022-12-09T08:11:10.301Z,2.90
2022-12-09T08:13:37.903Z,3.53
2022-12-09T08:16:06.165Z,3.33
2022-12-09T08:18:34.194Z,4.00
2022-12-09T08:21:05.275Z,2.07
2022-12-09T08:23:32.895Z,4.90
2022-12-09T08:26:01.083Z,4.00
2022-12-09T08:28:29.896Z,4.63
2022-12-09T08:30:57.532Z,3.03
2022-12-09T08:33:25.422Z,4.33
2022-12-09T08:35:52.966Z,2.90
2022-12-09T08:38:20.403Z,3.63
2022-12-09T08:40:47.659Z,3.17
2022-12-09T08:43:15.272Z,4.57
2022-12-09T08:45:42.696Z,4.30
2022-12-09T08:48:10.356Z,5.57
2022-12-09T08:50:38.153Z,4.97
2022-12-09T08:53:05.339Z,4.97
2022-12-09T08:55:34.851Z,5.23
2022-12-09T08:58:02.241Z,5.47
2022-12-09T09:00:29.754Z,2.73
2022-12-09T09:02:57.760Z,4.17
2022-12-09T09:05:25.914Z,4.43
2022-12-09T09:07:53.341Z,3.07
2022-12-09T09:10:20.867Z,3.27
2022-12-09T09:12:48.562Z,3.50
2022-12-09T09:15:16.156Z,3.87
2022-12-09T09:17:49.848Z,4.10
2022-12-09T09:20:19.245Z,4.70
2022-12-09T09:22:47.002Z,2.43
2022-12-09T09:25:14.764Z,3.57
2022-12-09T09:27:42.220Z,4.43
2022-12-09T09:30:10.497Z,3.73
2022-12-09T09:32:38.058Z,3.80
2022-12-09T09:35:05.666Z,4.23
2022-12-09T09:37:33.691Z,3.10
2022-12-09T09:40:01.157Z,3.00
2022-12-09T09:42:35.111Z,2.03
2022-12-09T09:45:04.739Z,3.63
2022-12-09T09:47:37.849Z,4.70
2022-12-09T09:50:25.184Z,5.43
2022-12-09T09:52:53.912Z,3.20
2022-12-09T09:55:29.842Z,4.33
2022-12-09T09:58:06.624Z,3.87
2022-12-09T10:00:57.506Z,5.23
2022-12-09T10:03:44.567Z,3.97
2022-12-09T10:06:21.208Z,2.73
2022-12-09T10:08:57.248Z,4.10
2022-12-09T10:11:27.563Z,4.20
2022-12-09T10:13:59.574Z,4.40
2022-12-09T10:16:27.146Z,3.93
2022-12-09T10:18:54.513Z,2.83
2022-12-09T10:21:23.156Z,3.07
2022-12-09T10:23:51.072Z,5.17
2022-12-09T10:26:22.820Z,3.77
2022-12-09T10:28:54.180Z,6.00
2022-12-09T10:31:21.843Z,3.73
2022-12-09T10:33:49.704Z,4.30
2022-12-09T10:36:22.764Z,3.40
2022-12-09T10:38:50.899Z,5.53
2022-12-09T10:41:55.925Z,8.77
2022-12-09T10:44:24.682Z,6.40
2022-12-09T10:46:59.700Z,8.30
2022-12-09T10:49:27.204Z,5.47
2022-12-09T10:51:55.456Z,7.13
2022-12-09T10:54:25.761Z,5.93
2022-12-09T10:57:23.385Z,6.20
2022-12-09T11:00:17.366Z,5.40
2022-12-09T11:02:50.664Z,7.93
2022-12-09T11:05:22.273Z,3.77
2022-12-09T11:07:51.180Z,5.30
2022-12-09T11:10:20.786Z,5.63
2022-12-09T11:12:51.995Z,7.23
2022-12-09T11:15:26.541Z,4.83
2022-12-09T11:18:05.215Z,5.23
2022-12-09T11:20:34.521Z,5.33
2022-12-09T11:23:01.882Z,4.07
2022-12-09T11:25:32.520Z,2.73
2022-12-09T11:27:59.831Z,4.80
2022-12-09T11:30:27.985Z,8.00
2022-12-09T11:33:08.125Z,5.03
2022-12-09T11:35:45.181Z,5.47
2022-12-09T11:38:31.701Z,6.07
2022-12-09T11:41:15.110Z,7.53
2022-12-09T11:43:44.951Z,6.13
2022-12-09T11:46:14.825Z,6.33
2022-12-09T11:48:44.114Z,4.87
2022-12-09T11:51:21.633Z,4.67
2022-12-09T11:53:48.872Z,5.07
2022-12-09T11:56:22.245Z,5.27
2022-12-09T11:59:01.483Z,4.90
2022-12-09T12:01:33.265Z,6.67
2022-12-09T12:04:01.853Z,5.07
2022-12-09T12:06:47.758Z,5.83
2022-12-09T12:09:19.832Z,5.50
2022-12-09T12:12:13.210Z,5.83
2022-12-09T12:14:42.340Z,7.80
2022-12-09T12:17:32.542Z,5.77
2022-12-09T12:19:59.931Z,3.77
2022-12-09T12:22:39.332Z,6.43
2022-12-09T12:25:18.386Z,4.43
2022-12-09T12:27:54.958Z,4.27
2022-12-09T12:30:23.820Z,4.90
2022-12-09T12:36:01.637Z,3.80
2022-12-09T12:38:34.493Z,5.13
2022-12-09T12:41:04.418Z,3.87
2022-12-09T12:43:59.134Z,4.80
2022-12-09T12:46:27.123Z,3.63
2022-12-09T12:49:13.134Z,4.13
2022-12-09T12:51:40.225Z,3.63
2022-12-09T12:54:12.883Z,3.73
2022-12-09T12:56:46.996Z,3.37
2022-12-09T12:59:14.090Z,5.93
2022-12-09T13:01:52.491Z,3.63
2022-12-09T13:04:22.691Z,3.93
2022-12-09T13:06:49.944Z,3.30
2022-12-09T13:09:27.450Z,3.97
2022-12-09T13:12:08.059Z,4.43
2022-12-09T13:14:40.525Z,3.77
2022-12-09T13:17:09.121Z,4.27
2022-12-09T13:19:51.133Z,4.97
2022-12-09T13:22:41.252Z,4.20
2022-12-09T13:25:32.319Z,4.27
2022-12-09T13:28:14.175Z,3.13
2022-12-09T13:30:48.452Z,3.63
2022-12-09T13:33:35.104Z,4.10
2022-12-09T13:36:06.705Z,4.20
2022-12-09T13:38:40.538Z,4.33
2022-12-09T13:41:26.526Z,6.97
2022-12-09T13:44:12.842Z,4.83
2022-12-09T13:46:42.727Z,4.27
2022-12-09T13:49:20.648Z,4.30
2022-12-09T13:51:52.382Z,4.47
2022-12-09T13:54:21.163Z,3.90
2022-12-09T13:57:04.999Z,3.77
2022-12-09T13:59:32.177Z,4.57
2022-12-09T14:02:02.410Z,4.60
2022-12-09T14:04:29.578Z,4.53
2022-12-09T14:07:23.110Z,3.77
2022-12-09T14:09:53.434Z,3.77
2022-12-09T14:12:26.622Z,5.97
2022-12-09T14:14:54.889Z,4.83
2022-12-09T14:17:43.146Z,5.23
2022-12-09T14:20:24.548Z,5.70
2022-12-09T14:23:03.897Z,5.63
2022-12-09T14:25:33.568Z,4.97
2022-12-09T14:28:12.865Z,5.13
2022-12-09T14:30:49.431Z,4.83
2022-12-09T14:33:35.533Z,5.93
2022-12-09T14:36:02.658Z,4.23
2022-12-09T14:38:49.603Z,5.87
2022-12-09T14:41:30.933Z,4.63
2022-12-09T14:44:10.049Z,4.27
2022-12-09T14:46:38.561Z,4.43
2022-12-09T14:49:05.719Z,4.00
2022-12-09T14:51:47.776Z,4.50
2022-12-09T14:54:26.281Z,4.77
2022-12-09T14:56:55.648Z,4.60
2022-12-09T14:59:24.360Z,4.73
2022-12-09T15:01:54.286Z,4.90
2022-12-09T15:04:27.692Z,5.37
2022-12-09T15:07:08.473Z,4.07
2022-12-09T15:09:35.649Z,4.83
2022-12-09T15:12:07.836Z,4.67
2022-12-09T15:14:36.342Z,4.83
2022-12-09T15:17:03.490Z,4.27
2022-12-09T15:19:59.048Z,3.83
2022-12-09T15:22:30.134Z,3.93
2022-12-09T15:24:57.358Z,5.17
2022-12-09T15:27:25.443Z,4.53
2022-12-09T15:29:53.265Z,5.00
2022-12-09T15:32:22.218Z,6.43
2022-12-09T15:34:49.396Z,4.47
2022-12-09T15:37:17.774Z,4.60
2022-12-09T15:39:50.179Z,5.00
2022-12-09T15:42:21.965Z,5.37
2022-12-09T15:44:49.110Z,6.43
2022-12-09T15:47:20.813Z,4.23
2022-12-09T15:49:57.390Z,4.83
2022-12-09T15:52:27.298Z,4.97
2022-12-09T15:54:54.958Z,4.47
2022-12-09T15:57:23.392Z,4.83
2022-12-09T15:59:56.084Z,6.03
2022-12-09T16:02:26.269Z,6.87
2022-12-09T16:04:55.041Z,5.77
2022-12-09T16:07:23.462Z,5.23
2022-12-09T16:10:09.293Z,5.37
2022-12-09T16:12:37.179Z,5.60
2022-12-09T16:15:06.280Z,5.93
2022-12-09T16:17:37.637Z,6.43
2022-12-09T16:20:21.531Z,4.93
2022-12-09T16:22:49.850Z,5.63
2022-12-09T16:25:20.818Z,6.00
2022-12-09T16:27:49.613Z,6.80
2022-12-09T16:30:16.783Z,8.43
2022-12-09T16:32:47.941Z,7.03
2022-12-09T16:35:17.797Z,8.00
2022-12-09T16:37:56.914Z,6.40
2022-12-09T16:40:24.021Z,7.53
2022-12-09T16:42:52.190Z,6.20
2022-12-09T16:45:32.117Z,6.33
2022-12-09T16:48:00.076Z,6.67
2022-12-09T16:50:29.125Z,6.03
2022-12-09T16:52:56.539Z,6.63
2022-12-09T16:55:24.951Z,6.23
2022-12-09T16:57:52.554Z,6.20
2022-12-09T17:00:20.246Z,7.00
2022-12-09T17:02:55.443Z,6.87
2022-12-09T17:05:22.548Z,6.80
2022-12-09T17:07:49.813Z,7.57
2022-12-09T17:10:17.337Z,7.30
2022-12-09T17:12:44.943Z,6.80
2022-12-09T17:15:16.177Z,6.93
2022-12-09T17:17:48.399Z,6.53
2022-12-09T17:20:16.205Z,6.57
2022-12-09T17:22:43.433Z,8.27
2022-12-09T17:25:10.639Z,7.30
2022-12-09T17:27:38.223Z,7.03
2022-12-09T17:30:05.779Z,6.67
2022-12-09T17:32:32.905Z,7.30
2022-12-09T17:35:00.010Z,6.10
2022-12-09T17:37:27.250Z,7.77
2022-12-09T17:40:00.096Z,7.70
2022-12-09T17:42:30.456Z,6.77
2022-12-09T17:44:57.869Z,8.07
2022-12-09T17:47:25.148Z,6.10
2022-12-09T17:49:52.436Z,7.27
2022-12-09T17:52:19.570Z,6.23
2022-12-09T17:54:47.719Z,6.93
2022-12-09T17:57:14.908Z,7.63
2022-12-09T17:59:42.111Z,8.00
2022-12-09T18:02:10.823Z,7.03
2022-12-09T18:04:38.037Z,7.00
2022-12-09T18:07:05.186Z,7.90
2022-12-09T18:09:32.456Z,7.47
2022-12-09T18:11:59.625Z,7.30
2022-12-09T18:14:26.794Z,6.90
2022-12-09T18:16:54.157Z,7.30
2022-12-09T18:19:23.372Z,6.80
2022-12-09T18:21:50.524Z,8.03
2022-12-09T18:24:18.270Z,6.90
2022-12-09T18:26:45.404Z,7.40
2022-12-09T18:29:13.003Z,8.80
2022-12-09T18:31:40.758Z,7.23
2022-12-09T18:34:07.910Z,9.23
2022-12-09T18:36:35.293Z,6.30
2022-12-09T18:39:02.435Z,7.63
2022-12-09T18:41:30.558Z,8.37
2022-12-09T18:43:58.965Z,7.67
2022-12-09T18:46:28.255Z,8.87
2022-12-09T18:48:59.376Z,7.90
2022-12-09T18:51:26.772Z,8.30
2022-12-09T18:53:54.042Z,6.67
2022-12-09T18:56:21.235Z,8.23
2022-12-09T19:01:39.080Z,9.87
2022-12-09T19:04:06.984Z,9.10
2022-12-09T19:06:35.260Z,6.97
2022-12-09T19:09:04.181Z,7.97
2022-12-09T19:11:32.965Z,6.63
2022-12-09T19:14:00.565Z,9.73
2022-12-09T19:16:28.385Z,9.23
2022-12-09T19:18:56.050Z,9.63
2022-12-09T19:21:24.003Z,11.17
2022-12-09T19:23:51.740Z,9.07
2022-12-09T19:26:23.612Z,8.57
2022-12-09T19:28:52.966Z,8.33
2022-12-09T19:31:30.255Z,9.23
2022-12-09T19:33:58.598Z,8.97
2022-12-09T19:36:27.044Z,8.23
2022-12-09T19:38:54.215Z,7.83
2022-12-09T19:41:21.675Z,8.27
2022-12-09T19:43:48.876Z,8.03
2022-12-09T19:46:16.452Z,8.30
2022-12-09T19:48:44.424Z,8.27
2022-12-09T19:51:13.072Z,9.47
2022-12-09T19:53:40.937Z,8.83
2022-12-09T19:56:09.777Z,8.47
2022-12-09T19:58:37.967Z,8.23
2022-12-09T20:01:11.965Z,7.27
2022-12-09T20:03:39.682Z,8.03
2022-12-09T20:06:08.091Z,7.53
2022-12-09T20:08:35.529Z,9.63
2022-12-09T20:11:02.716Z,8.17
2022-12-09T20:13:32.032Z,8.83
2022-12-09T20:16:03.344Z,8.53
2022-12-09T20:18:30.574Z,8.27
2022-12-09T20:21:00.660Z,8.37
2022-12-09T20:23:28.106Z,7.97
2022-12-09T20:25:55.236Z,7.33
2022-12-09T20:28:22.369Z,7.17
2022-12-09T20:30:51.278Z,9.23
2022-12-09T20:33:18.434Z,8.30
2022-12-09T20:35:45.581Z,6.80
2022-12-09T20:38:12.779Z,6.50
2022-12-09T20:40:40.887Z,8.13
2022-12-09T20:43:08.154Z,7.07
2022-12-09T20:45:35.468Z,7.33
2022-12-09T20:48:02.644Z,7.53
2022-12-09T20:50:35.125Z,7.10
2022-12-09T20:53:05.405Z,6.57
2022-12-09T20:55:32.542Z,6.60
2022-12-09T20:57:59.801Z,7.33
2022-12-09T21:00:26.933Z,6.57
2022-12-09T21:02:54.043Z,7.97
2022-12-09T21:05:21.214Z,6.17
2022-12-09T21:07:48.417Z,6.73
2022-12-09T21:10:15.617Z,6.50
2022-12-09T21:12:42.734Z,6.27
2022-12-09T21:15:10.912Z,6.50
2022-12-09T21:17:38.039Z,7.10
2022-12-09T21:20:05.557Z,6.10
2022-12-09T21:22:34.141Z,8.67
2022-12-09T21:25:01.258Z,7.23
2022-12-09T21:27:28.425Z,7.47
2022-12-09T21:29:55.588Z,7.33
2022-12-09T21:32:22.699Z,6.47
2022-12-09T21:34:49.850Z,6.87
2022-12-09T21:37:17.160Z,8.93
2022-12-09T21:39:44.334Z,7.33
2022-12-09T21:42:11.518Z,7.37
2022-12-09T21:44:40.937Z,6.50
2022-12-09T21:47:08.093Z,8.27
2022-12-09T21:49:35.344Z,7.37
2022-12-09T21:52:03.398Z,7.70
2022-12-09T21:54:30.591Z,6.77
2022-12-09T21:56:57.753Z,6.10
2022-12-09T21:59:24.897Z,6.37
2022-12-09T22:01:52.087Z,8.00
2022-12-09T22:04:19.449Z,7.60
2022-12-09T22:06:50.600Z,8.03
2022-12-09T22:09:20.558Z,7.90
2022-12-09T22:11:47.812Z,7.77
2022-12-09T22:14:14.985Z,6.10
2022-12-09T22:16:43.871Z,6.77
2022-12-09T22:19:13.836Z,8.53
2022-12-09T22:21:41.034Z,8.70
2022-12-09T22:24:09.361Z,6.97
2022-12-09T22:26:36.781Z,7.70
2022-12-09T22:29:05.042Z,6.90
2022-12-09T22:31:34.065Z,6.93
2022-12-09T22:34:02.788Z,6.87
2022-12-09T22:36:30.026Z,7.73
2022-12-09T22:38:57.412Z,6.63
2022-12-09T22:41:25.712Z,7.20
2022-12-09T22:43:53.999Z,7.07
2022-12-09T22:46:22.725Z,6.90
2022-12-09T22:48:49.963Z,7.40
2022-12-09T22:51:18.798Z,6.50
2022-12-09T22:53:46.241Z,7.57
2022-12-09T22:56:13.387Z,8.30
2022-12-09T22:58:40.950Z,7.93
2022-12-09T23:01:18.608Z,8.10
2022-12-09T23:03:45.800Z,5.67
2022-12-09T23:06:12.928Z,6.70
2022-12-09T23:08:41.119Z,6.57
2022-12-09T23:11:09.390Z,7.50
2022-12-09T23:13:40.992Z,8.07
2022-12-09T23:16:09.179Z,7.03
2022-12-09T23:18:36.527Z,6.57
2022-12-09T23:21:14.187Z,6.07
2022-12-09T23:23:41.795Z,6.57
2022-12-09T23:26:13.459Z,7.17
2022-12-09T23:28:41.641Z,7.20
2022-12-09T23:31:10.245Z,6.73
2022-12-09T23:33:37.836Z,5.40
2022-12-09T23:36:09.089Z,6.00
2022-12-09T23:38:36.535Z,5.93
2022-12-09T23:41:04.270Z,5.63
2022-12-09T23:43:32.299Z,6.83
2022-12-09T23:46:14.474Z,5.83
2022-12-09T23:48:42.775Z,5.50
2022-12-09T23:51:13.991Z,5.47
2022-12-09T23:53:41.840Z,6.73
2022-12-09T23:56:11.185Z,6.30
2022-12-09T23:58:38.297Z,6.93
